Aviation Digital Data Service (ADDS)

Output produced by METARs form (1156 UTC 22 March 2019)
found at http://www.aviationweather.gov/metar/data/
 
METAR text: FALA 221100Z 05008KT 010V140 9999 BKN025 26/14 Q1023 NOSIG
Conditions at: FALA (LANSERIA (CIV/MI, ZA) observed 1100 UTC 22 March 2019
Temperature: 26.0°C (79°F)
Dewpoint: 14.0°C (57°F) [RH = 48%]
Pressure (altimeter): 30.21 inches Hg (1023.0 mb)
Winds: from the NE (50 degrees) at 9 MPH (8 knots; 4.1 m/s)
Visibility: 6 or more miles (10+ km)
Ceiling: 2500 feet AGL
Clouds: broken clouds at 2500 feet AGL
Weather: no significant weather observed at this time

METAR text: FALA 221048Z 03007KT 330V140 9999 BKN025 27/14 Q1023 NOSIG
Conditions at: FALA (LANSERIA (CIV/MI, ZA) observed 1048 UTC 22 March 2019
Temperature: 27.0°C (81°F)
Dewpoint: 14.0°C (57°F) [RH = 45%]
Pressure (altimeter): 30.21 inches Hg (1023.0 mb)
Winds: from the NNE (30 degrees) at 8 MPH (7 knots; 3.6 m/s)
Visibility: 6 or more miles (10+ km)
Ceiling: 2500 feet AGL
Clouds: broken clouds at 2500 feet AGL
Weather: no significant weather observed at this time

METAR text: FALA 221000Z 04009KT 010V070 9999 BKN020 24/15 Q1024 NOSIG
Conditions at: FALA (LANSERIA (CIV/MI, ZA) observed 1000 UTC 22 March 2019
Temperature: 24.0°C (75°F)
Dewpoint: 15.0°C (59°F) [RH = 57%]
Pressure (altimeter): 30.24 inches Hg (1024.0 mb)
Winds: from the NE (40 degrees) at 10 MPH (9 knots; 4.6 m/s)
Visibility: 6 or more miles (10+ km)
Ceiling: 2000 feet AGL
Clouds: broken clouds at 2000 feet AGL
Weather: no significant weather observed at this time

METAR text: FALA 220900Z 03009KT 010V070 9999 BKN020 23/15 Q1025 NOSIG
Conditions at: FALA (LANSERIA (CIV/MI, ZA) observed 0900 UTC 22 March 2019
Temperature: 23.0°C (73°F)
Dewpoint: 15.0°C (59°F) [RH = 61%]
Pressure (altimeter): 30.27 inches Hg (1025.0 mb)
Winds: from the NNE (30 degrees) at 10 MPH (9 knots; 4.6 m/s)
Visibility: 6 or more miles (10+ km)
Ceiling: 2000 feet AGL
Clouds: broken clouds at 2000 feet AGL
Weather: no significant weather observed at this time

METAR text: FALA 220800Z 03010KT 360V060 9999 BKN020 22/15 Q1025 NOSIG
Conditions at: FALA (LANSERIA (CIV/MI, ZA) observed 0800 UTC 22 March 2019
Temperature: 22.0°C (72°F)
Dewpoint: 15.0°C (59°F) [RH = 65%]
Pressure (altimeter): 30.27 inches Hg (1025.0 mb)
Winds: from the NNE (30 degrees) at 12 MPH (10 knots; 5.1 m/s)
Visibility: 6 or more miles (10+ km)
Ceiling: 2000 feet AGL
Clouds: broken clouds at 2000 feet AGL
Weather: no significant weather observed at this time

METAR text: FALA 220700Z 03011KT 350V060 9999 BKN020 21/15 Q1025 NOSIG
Conditions at: FALA (LANSERIA (CIV/MI, ZA) observed 0700 UTC 22 March 2019
Temperature: 21.0°C (70°F)
Dewpoint: 15.0°C (59°F) [RH = 69%]
Pressure (altimeter): 30.27 inches Hg (1025.0 mb)
Winds: from the NNE (30 degrees) at 13 MPH (11 knots; 5.7 m/s)
Visibility: 6 or more miles (10+ km)
Ceiling: 2000 feet AGL
Clouds: broken clouds at 2000 feet AGL
Weather: no significant weather observed at this time

METAR text: FALA 220600Z 05005KT 020V080 9999 BKN020 20/15 Q1024 NOSIG
Conditions at: FALA (LANSERIA (CIV/MI, ZA) observed 0600 UTC 22 March 2019
Temperature: 20.0°C (68°F)
Dewpoint: 15.0°C (59°F) [RH = 73%]
Pressure (altimeter): 30.24 inches Hg (1024.0 mb)
Winds: from the NE (50 degrees) at 6 MPH (5 knots; 2.6 m/s)
Visibility: 6 or more miles (10+ km)
Ceiling: 2000 feet AGL
Clouds: broken clouds at 2000 feet AGL
Weather: no significant weather observed at this time

METAR text: FALA 220500Z 09006KT 9999 BKN020 18/14 Q1023 NOSIG
Conditions at: FALA (LANSERIA (CIV/MI, ZA) observed 0500 UTC 22 March 2019
Temperature: 18.0°C (64°F)
Dewpoint: 14.0°C (57°F) [RH = 77%]
Pressure (altimeter): 30.21 inches Hg (1023.0 mb)
Winds: from the E (90 degrees) at 7 MPH (6 knots; 3.1 m/s)
Visibility: 6 or more miles (10+ km)
Ceiling: 2000 feet AGL
Clouds: broken clouds at 2000 feet AGL
Weather: no significant weather observed at this time

METAR text: FALA 220400Z 09008KT 9999 SCT020 18/14 Q1023 NOSIG
Conditions at: FALA (LANSERIA (CIV/MI, ZA) observed 0400 UTC 22 March 2019
Temperature: 18.0°C (64°F)
Dewpoint: 14.0°C (57°F) [RH = 77%]
Pressure (altimeter): 30.21 inches Hg (1023.0 mb)
Winds: from the E (90 degrees) at 9 MPH (8 knots; 4.1 m/s)
Visibility: 6 or more miles (10+ km)
Ceiling: at least 12,000 feet AGL
Clouds: scattered clouds at 2000 feet AGL
Weather: no significant weather observed at this time

METAR text: FALA 220300Z 10006KT 070V130 CAVOK 18/14 Q1022 NOSIG
Conditions at: FALA (LANSERIA (CIV/MI, ZA) observed 0300 UTC 22 March 2019
Temperature: 18.0°C (64°F)
Dewpoint: 14.0°C (57°F) [RH = 77%]
Pressure (altimeter): 30.18 inches Hg (1022.0 mb)
Winds: from the E (100 degrees) at 7 MPH (6 knots; 3.1 m/s)
Visibility: 6 or more miles (10+ km)
Ceiling: ceiling and visibility are OK
Clouds: unknown
Weather: no significant weather observed at this time

METAR text: FALA 220100Z AUTO 08006KT 050V120 //// ////// 20/14 Q1021
Conditions at: FALA (LANSERIA (CIV/MI, ZA) observed 0100 UTC 22 March 2019
Temperature: 20.0°C (68°F)
Dewpoint: 14.0°C (57°F) [RH = 68%]
Pressure (altimeter): 30.15 inches Hg (1021.0 mb)
Winds: from the E (80 degrees) at 7 MPH (6 knots; 3.1 m/s)
Visibility: missing
Ceiling: unknown
Clouds: missing
Weather: no significant weather observed at this time

METAR text: FALA 212300Z AUTO 11006KT //// ////// 20/13 Q1021
Conditions at: FALA (LANSERIA (CIV/MI, ZA) observed 2300 UTC 21 March 2019
Temperature: 20.0°C (68°F)
Dewpoint: 13.0°C (55°F) [RH = 64%]
Pressure (altimeter): 30.15 inches Hg (1021.0 mb)
Winds: from the ESE (110 degrees) at 7 MPH (6 knots; 3.1 m/s)
Visibility: missing
Ceiling: unknown
Clouds: missing
Weather: no significant weather observed at this time

METAR text: FALA 212200Z AUTO 12003KT //// ////// 21/10 Q1020
Conditions at: FALA (LANSERIA (CIV/MI, ZA) observed 2200 UTC 21 March 2019
Temperature: 21.0°C (70°F)
Dewpoint: 10.0°C (50°F) [RH = 49%]
Pressure (altimeter): 30.12 inches Hg (1020.0 mb)
Winds: from the ESE (120 degrees) at 3 MPH (3 knots; 1.5 m/s)
Visibility: missing
Ceiling: unknown
Clouds: missing
Weather: no significant weather observed at this time

METAR text: FALA 212100Z AUTO 09004KT 050V110 //// ////// 19/10 Q1020
Conditions at: FALA (LANSERIA (CIV/MI, ZA) observed 2100 UTC 21 March 2019
Temperature: 19.0°C (66°F)
Dewpoint: 10.0°C (50°F) [RH = 56%]
Pressure (altimeter): 30.12 inches Hg (1020.0 mb)
Winds: from the E (90 degrees) at 5 MPH (4 knots; 2.1 m/s)
Visibility: missing
Ceiling: unknown
Clouds: missing
Weather: no significant weather observed at this time

METAR text: FALA 212000Z 19004KT CAVOK 22/08 Q1019 NOSIG RMK DIST CB TO THE E
Conditions at: FALA (LANSERIA (CIV/MI, ZA) observed 2000 UTC 21 March 2019
Temperature: 22.0°C (72°F)
Dewpoint: 8.0°C (46°F) [RH = 41%]
Pressure (altimeter): 30.09 inches Hg (1019.0 mb)
Winds: from the S (190 degrees) at 5 MPH (4 knots; 2.1 m/s)
Visibility: 6 or more miles (10+ km)
Ceiling: ceiling and visibility are OK
Clouds: unknown
Weather: no significant weather observed at this time

METAR text: FALA 211900Z 00000KT CAVOK 22/08 Q1019 NOSIG
Conditions at: FALA (LANSERIA (CIV/MI, ZA) observed 1900 UTC 21 March 2019
Temperature: 22.0°C (72°F)
Dewpoint: 8.0°C (46°F) [RH = 41%]
Pressure (altimeter): 30.09 inches Hg (1019.0 mb)
Winds: calm
Visibility: 6 or more miles (10+ km)
Ceiling: ceiling and visibility are OK
Clouds: unknown
Weather: no significant weather observed at this time

METAR text: FALA 211800Z 19007KT CAVOK 25/07 Q1019 NOSIG
Conditions at: FALA (LANSERIA (CIV/MI, ZA) observed 1800 UTC 21 March 2019
Temperature: 25.0°C (77°F)
Dewpoint: 7.0°C (45°F) [RH = 32%]
Pressure (altimeter): 30.09 inches Hg (1019.0 mb)
Winds: from the S (190 degrees) at 8 MPH (7 knots; 3.6 m/s)
Visibility: 6 or more miles (10+ km)
Ceiling: ceiling and visibility are OK
Clouds: unknown
Weather: no significant weather observed at this time

METAR text: FALA 211700Z 19005KT CAVOK 27/06 Q1018 NOSIG
Conditions at: FALA (LANSERIA (CIV/MI, ZA) observed 1700 UTC 21 March 2019
Temperature: 27.0°C (81°F)
Dewpoint: 6.0°C (43°F) [RH = 26%]
Pressure (altimeter): 30.06 inches Hg (1018.0 mb)
Winds: from the S (190 degrees) at 6 MPH (5 knots; 2.6 m/s)
Visibility: 6 or more miles (10+ km)
Ceiling: ceiling and visibility are OK
Clouds: unknown
Weather: no significant weather observed at this time

METAR text: FALA 211600Z 25006KT 230V290 CAVOK 30/07 Q1017 NOSIG
Conditions at: FALA (LANSERIA (CIV/MI, ZA) observed 1600 UTC 21 March 2019
Temperature: 30.0°C (86°F)
Dewpoint: 7.0°C (45°F) [RH = 24%]
Pressure (altimeter): 30.03 inches Hg (1017.0 mb)
Winds: from the WSW (250 degrees) at 7 MPH (6 knots; 3.1 m/s)
Visibility: 6 or more miles (10+ km)
Ceiling: ceiling and visibility are OK
Clouds: unknown
Weather: no significant weather observed at this time

METAR text: FALA 211500Z 30008KT 260V330 CAVOK 31/09 Q1017 NOSIG
Conditions at: FALA (LANSERIA (CIV/MI, ZA) observed 1500 UTC 21 March 2019
Temperature: 31.0°C (88°F)
Dewpoint: 9.0°C (48°F) [RH = 26%]
Pressure (altimeter): 30.03 inches Hg (1017.0 mb)
Winds: from the WNW (300 degrees) at 9 MPH (8 knots; 4.1 m/s)
Visibility: 6 or more miles (10+ km)
Ceiling: ceiling and visibility are OK
Clouds: unknown
Weather: no significant weather observed at this time

METAR text: FALA 211400Z 28009KT 240V330 CAVOK 31/10 Q1017 NOSIG
Conditions at: FALA (LANSERIA (CIV/MI, ZA) observed 1400 UTC 21 March 2019
Temperature: 31.0°C (88°F)
Dewpoint: 10.0°C (50°F) [RH = 27%]
Pressure (altimeter): 30.03 inches Hg (1017.0 mb)
Winds: from the W (280 degrees) at 10 MPH (9 knots; 4.6 m/s)
Visibility: 6 or more miles (10+ km)
Ceiling: ceiling and visibility are OK
Clouds: unknown
Weather: no significant weather observed at this time

METAR text: FALA 211300Z 28011KT CAVOK 32/08 Q1018 NOSIG
Conditions at: FALA (LANSERIA (CIV/MI, ZA) observed 1300 UTC 21 March 2019
Temperature: 32.0°C (90°F)
Dewpoint: 8.0°C (46°F) [RH = 23%]
Pressure (altimeter): 30.06 inches Hg (1018.0 mb)
Winds: from the W (280 degrees) at 13 MPH (11 knots; 5.7 m/s)
Visibility: 6 or more miles (10+ km)
Ceiling: ceiling and visibility are OK
Clouds: unknown
Weather: no significant weather observed at this time

METAR text: FALA 211200Z 29008KT 260V340 9999 SCT040 31/09 Q1019 NOSIG
Conditions at: FALA (LANSERIA (CIV/MI, ZA) observed 1200 UTC 21 March 2019
Temperature: 31.0°C (88°F)
Dewpoint: 9.0°C (48°F) [RH = 26%]
Pressure (altimeter): 30.09 inches Hg (1019.0 mb)
Winds: from the WNW (290 degrees) at 9 MPH (8 knots; 4.1 m/s)
Visibility: 6 or more miles (10+ km)
Ceiling: at least 12,000 feet AGL
Clouds: scattered clouds at 4000 feet AGL
Weather: no significant weather observed at this time

METAR text: FALA 211100Z 31010KT 260V350 9999 FEW040 30/10 Q1019 NOSIG
Conditions at: FALA (LANSERIA (CIV/MI, ZA) observed 1100 UTC 21 March 2019
Temperature: 30.0°C (86°F)
Dewpoint: 10.0°C (50°F) [RH = 29%]
Pressure (altimeter): 30.09 inches Hg (1019.0 mb)
Winds: from the NW (310 degrees) at 12 MPH (10 knots; 5.1 m/s)
Visibility: 6 or more miles (10+ km)
Ceiling: at least 12,000 feet AGL
Clouds: few clouds at 4000 feet AGL
Weather: no significant weather observed at this time

METAR text: FALA 211000Z 31008KT 260V040 9999 FEW040 29/10 Q1020 NOSIG
Conditions at: FALA (LANSERIA (CIV/MI, ZA) observed 1000 UTC 21 March 2019
Temperature: 29.0°C (84°F)
Dewpoint: 10.0°C (50°F) [RH = 31%]
Pressure (altimeter): 30.12 inches Hg (1020.0 mb)
Winds: from the NW (310 degrees) at 9 MPH (8 knots; 4.1 m/s)
Visibility: 6 or more miles (10+ km)
Ceiling: at least 12,000 feet AGL
Clouds: few clouds at 4000 feet AGL
Weather: no significant weather observed at this time

METAR text: FALA 210900Z 31009KT 270V030 CAVOK 28/11 Q1021 NOSIG
Conditions at: FALA (LANSERIA (CIV/MI, ZA) observed 0900 UTC 21 March 2019
Temperature: 28.0°C (82°F)
Dewpoint: 11.0°C (52°F) [RH = 35%]
Pressure (altimeter): 30.15 inches Hg (1021.0 mb)
Winds: from the NW (310 degrees) at 10 MPH (9 knots; 4.6 m/s)
Visibility: 6 or more miles (10+ km)
Ceiling: ceiling and visibility are OK
Clouds: unknown
Weather: no significant weather observed at this time

METAR text: FALA 210836Z 01004KT 290V090 CAVOK 27/13 Q1021 NOSIG
Conditions at: FALA (LANSERIA (CIV/MI, ZA) observed 0836 UTC 21 March 2019
Temperature: 27.0°C (81°F)
Dewpoint: 13.0°C (55°F) [RH = 42%]
Pressure (altimeter): 30.15 inches Hg (1021.0 mb)
Winds: from the N (10 degrees) at 5 MPH (4 knots; 2.1 m/s)
Visibility: 6 or more miles (10+ km)
Ceiling: ceiling and visibility are OK
Clouds: unknown
Weather: no significant weather observed at this time

METAR text: FALA 210800Z VRB03KT CAVOK 25/12 Q1021 NOSIG
Conditions at: FALA (LANSERIA (CIV/MI, ZA) observed 0800 UTC 21 March 2019
Temperature: 25.0°C (77°F)
Dewpoint: 12.0°C (54°F) [RH = 44%]
Pressure (altimeter): 30.15 inches Hg (1021.0 mb)
Winds: variable direction winds at 3 MPH (3 knots; 1.5 m/s)
Visibility: 6 or more miles (10+ km)
Ceiling: ceiling and visibility are OK
Clouds: unknown
Weather: no significant weather observed at this time

METAR text: FALA 210729Z VRB04KT CAVOK 25/13 Q1021 NOSIG
Conditions at: FALA (LANSERIA (CIV/MI, ZA) observed 0729 UTC 21 March 2019
Temperature: 25.0°C (77°F)
Dewpoint: 13.0°C (55°F) [RH = 47%]
Pressure (altimeter): 30.15 inches Hg (1021.0 mb)
Winds: variable direction winds at 5 MPH (4 knots; 2.1 m/s)
Visibility: 6 or more miles (10+ km)
Ceiling: ceiling and visibility are OK
Clouds: unknown
Weather: no significant weather observed at this time

METAR text: FALA 210700Z VRB03KT CAVOK 23/12 Q1020 NOSIG
Conditions at: FALA (LANSERIA (CIV/MI, ZA) observed 0700 UTC 21 March 2019
Temperature: 23.0°C (73°F)
Dewpoint: 12.0°C (54°F) [RH = 50%]
Pressure (altimeter): 30.12 inches Hg (1020.0 mb)
Winds: variable direction winds at 3 MPH (3 knots; 1.5 m/s)
Visibility: 6 or more miles (10+ km)
Ceiling: ceiling and visibility are OK
Clouds: unknown
Weather: no significant weather observed at this time

METAR text: FALA 210647Z VRB03KT CAVOK 23/12 Q1020 NOSIG
Conditions at: FALA (LANSERIA (CIV/MI, ZA) observed 0647 UTC 21 March 2019
Temperature: 23.0°C (73°F)
Dewpoint: 12.0°C (54°F) [RH = 50%]
Pressure (altimeter): 30.12 inches Hg (1020.0 mb)
Winds: variable direction winds at 3 MPH (3 knots; 1.5 m/s)
Visibility: 6 or more miles (10+ km)
Ceiling: ceiling and visibility are OK
Clouds: unknown
Weather: no significant weather observed at this time

METAR text: FALA 210600Z VRB02KT CAVOK 21/10 Q1020 NOSIG
Conditions at: FALA (LANSERIA (CIV/MI, ZA) observed 0600 UTC 21 March 2019
Temperature: 21.0°C (70°F)
Dewpoint: 10.0°C (50°F) [RH = 49%]
Pressure (altimeter): 30.12 inches Hg (1020.0 mb)
Winds: variable direction winds at 2 MPH (2 knots; 1.0 m/s)
Visibility: 6 or more miles (10+ km)
Ceiling: ceiling and visibility are OK
Clouds: unknown
Weather: no significant weather observed at this time

METAR text: FALA 210552Z VRB02KT CAVOK 21/10 Q1020 NOSIG
Conditions at: FALA (LANSERIA (CIV/MI, ZA) observed 0552 UTC 21 March 2019
Temperature: 21.0°C (70°F)
Dewpoint: 10.0°C (50°F) [RH = 49%]
Pressure (altimeter): 30.12 inches Hg (1020.0 mb)
Winds: variable direction winds at 2 MPH (2 knots; 1.0 m/s)
Visibility: 6 or more miles (10+ km)
Ceiling: ceiling and visibility are OK
Clouds: unknown
Weather: no significant weather observed at this time

METAR text: FALA 210539Z 17004KT 110V190 CAVOK 19/08 Q1020 NOSIG
Conditions at: FALA (LANSERIA (CIV/MI, ZA) observed 0539 UTC 21 March 2019
Temperature: 19.0°C (66°F)
Dewpoint: 8.0°C (46°F) [RH = 49%]
Pressure (altimeter): 30.12 inches Hg (1020.0 mb)
Winds: from the S (170 degrees) at 5 MPH (4 knots; 2.1 m/s)
Visibility: 6 or more miles (10+ km)
Ceiling: ceiling and visibility are OK
Clouds: unknown
Weather: no significant weather observed at this time

METAR text: FALA 210508Z 17004KT 110V210 CAVOK 17/08 Q1020 NOSIG
Conditions at: FALA (LANSERIA (CIV/MI, ZA) observed 0508 UTC 21 March 2019
Temperature: 17.0°C (63°F)
Dewpoint: 8.0°C (46°F) [RH = 55%]
Pressure (altimeter): 30.12 inches Hg (1020.0 mb)
Winds: from the S (170 degrees) at 5 MPH (4 knots; 2.1 m/s)
Visibility: 6 or more miles (10+ km)
Ceiling: ceiling and visibility are OK
Clouds: unknown
Weather: no significant weather observed at this time

METAR text: FALA 210500Z 22003KT 150V310 CAVOK 15/07 Q1020 NOSIG
Conditions at: FALA (LANSERIA (CIV/MI, ZA) observed 0500 UTC 21 March 2019
Temperature: 15.0°C (59°F)
Dewpoint: 7.0°C (45°F) [RH = 59%]
Pressure (altimeter): 30.12 inches Hg (1020.0 mb)
Winds: from the SW (220 degrees) at 3 MPH (3 knots; 1.5 m/s)
Visibility: 6 or more miles (10+ km)
Ceiling: ceiling and visibility are OK
Clouds: unknown
Weather: no significant weather observed at this time

METAR text: FALA 210400Z 18004KT CAVOK 16/07 Q1019 NOSIG
Conditions at: FALA (LANSERIA (CIV/MI, ZA) observed 0400 UTC 21 March 2019
Temperature: 16.0°C (61°F)
Dewpoint: 7.0°C (45°F) [RH = 55%]
Pressure (altimeter): 30.09 inches Hg (1019.0 mb)
Winds: from the S (180 degrees) at 5 MPH (4 knots; 2.1 m/s)
Visibility: 6 or more miles (10+ km)
Ceiling: ceiling and visibility are OK
Clouds: unknown
Weather: no significant weather observed at this time

METAR text: FALA 210300Z VRB02KT CAVOK 16/07 Q1018 NOSIG
Conditions at: FALA (LANSERIA (CIV/MI, ZA) observed 0300 UTC 21 March 2019
Temperature: 16.0°C (61°F)
Dewpoint: 7.0°C (45°F) [RH = 55%]
Pressure (altimeter): 30.06 inches Hg (1018.0 mb)
Winds: variable direction winds at 2 MPH (2 knots; 1.0 m/s)
Visibility: 6 or more miles (10+ km)
Ceiling: ceiling and visibility are OK
Clouds: unknown
Weather: no significant weather observed at this time

METAR text: FALA 210200Z AUTO 10002KT //// // ////// 18/06 Q1017
Conditions at: FALA (LANSERIA (CIV/MI, ZA) observed 0200 UTC 21 March 2019
Temperature: 18.0°C (64°F)
Dewpoint: 6.0°C (43°F) [RH = 45%]
Pressure (altimeter): 30.03 inches Hg (1017.0 mb)
Winds: from the E (100 degrees) at 2 MPH (2 knots; 1.0 m/s)
Visibility: missing
Ceiling: unknown
Clouds: missing
Weather: no significant weather observed at this time

METAR text: FALA 210000Z AUTO VRB02KT //// // ////// 17/08 Q1018
Conditions at: FALA (LANSERIA (CIV/MI, ZA) observed 0000 UTC 21 March 2019
Temperature: 17.0°C (63°F)
Dewpoint: 8.0°C (46°F) [RH = 55%]
Pressure (altimeter): 30.06 inches Hg (1018.0 mb)
Winds: variable direction winds at 2 MPH (2 knots; 1.0 m/s)
Visibility: missing
Ceiling: unknown
Clouds: missing
Weather: no significant weather observed at this time

Forecast for: AMD
Text: TAF AMD FALA 221135Z 2212/2312 04008KT 9999 SCT040 TX26/2213Z TN15/2304Z
Forecast period: 1200 to 1500 UTC 22 March 2019
Forecast type: FROM: standard forecast or significant change
Winds: from the NE (40 degrees) at 9 MPH (8 knots; 4.1 m/s)
Visibility: 6 or more miles 10+ km)
Ceiling: at least 12,000 feet AGL
Clouds: scattered clouds at 4000 feet AGL
Weather: no significant weather forecast for this period
Text: PROB30
Forecast period: 1300 to 1900 UTC 22 March 2019
Forecast type: TEMPORARY: The following changes expected for less than half the time period
Visibility: missing
Ceiling: at least 12,000 feet AGL
Clouds: few clouds at 4000 feet AGL
Weather: no significant weather forecast for this period
Text: TEMPO 2213/2219 FEW040TCU
Forecast period: 1500 to 1900 UTC 22 March 2019
Forecast type: BECOMING: Conditions expected to become as follows by 1700 UTC 22 March 2019
Winds: variable direction winds at 3 MPH (3 knots; 1.5 m/s)
Visibility: 6 or more miles 10+ km)
Ceiling: at least 12,000 feet AGL
Clouds: scattered clouds at 4000 feet AGL
Weather: no significant weather forecast for this period
Text: BECMG 2215/2217 VRB03KT
Forecast period: 1900 UTC 22 March 2019 to 0100 UTC 23 March 2019
Forecast type: BECOMING: Conditions expected to become as follows by 2100 UTC 22 March 2019
Winds: variable direction winds at 3 MPH (3 knots; 1.5 m/s)
Visibility: 6 or more miles 10+ km)
Ceiling: unknown
Clouds: missing
Weather: NSW  (no significant weather)
Text: BECMG 2219/2221 CAVOK
Forecast period: 0100 to 0700 UTC 23 March 2019
Forecast type: BECOMING: Conditions expected to become as follows by 0300 UTC 23 March 2019
Winds: variable direction winds at 3 MPH (3 knots; 1.5 m/s)
Visibility: 6 or more miles 10+ km)
Ceiling: 1500 feet AGL
Clouds: broken clouds at 1500 feet AGL
Weather: NSW  (no significant weather)
Text: BECMG 2301/2303 BKN015
Forecast period: 0700 to 1200 UTC 23 March 2019
Forecast type: FROM: standard forecast or significant change
Winds: from the NNE (30 degrees) at 10 MPH (9 knots; 4.6 m/s)
Visibility: 6 or more miles 10+ km)
Ceiling: at least 12,000 feet AGL
Clouds: scattered clouds at 4000 feet AGL
Weather: no significant weather forecast for this period